Thunder radar more information blitzortung!


avis per Pluja more information rain snow radar


Visita la nostra xarxa de llocs de meteo:

Template documentation
and downloads

And another site



Rain From: 17-10-2018 23:00 Until: 18-10-2018 16:59 warning for: Rain Level: Yellow info button

Pagina Historial Weather Underground text

Diari Resum Abril 21, 2016 Unitats:  Mètric    Imperial   Tant
« Previous Dia
SegĂźent Dia »
Diari Setmana Mensual Anual Personalitzada
  Maxima: Minima: Media:
Temperatura: -17.8 °C -11.9 °C -9.9 °C
Punt de rosada: -17.8 °C -14.8 °C -11.8 °C
Humitat: Humidity % 52 % 80 %
Wind Speed: 0 km/h 0 km/h 6.6 km/h
RĂ fegues de vent: 0 km/h - -
Vent:- - South
Pression baro: 0 hPa 34496.6 hPa -
Precipitacions: 594.36 mm    
Historical Graphs
 
 
Dades de taula per Abril 21, 2016
Temps Temperatura Punt de rosada Pression baro Vent Wind Speed RĂ fegues de vent Humitat Rainfall Rate (Hourly)
-17.8 °C -17.8 °C 0 hPa Calm     Humidity % 0 mm
00:02 -9.4 °C -14.8 °C 34601.5 hPa East 7.6 km/h 7.6 km/h 52 % 0 mm
01:45 -11.7 °C -13.8 °C 34533.8 hPa WNW 2.6 km/h 2.6 km/h 78 % 76.2 mm
01:55 -11.8 °C -13.8 °C 34533.8 hPa Calm   5.1 km/h 78 % 25.4 mm
02:05 -11.8 °C -13.8 °C 34533.8 hPa Calm   2.6 km/h 78 % 0 mm
02:15 -11.8 °C -13.8 °C 34533.8 hPa NW 5.1 km/h 5.1 km/h 79 % 58.42 mm
02:25 -11.8 °C -13.7 °C 34533.8 hPa Calm   2.6 km/h 80 % 76.2 mm
02:35 -11.8 °C -13.8 °C 34533.8 hPa Calm     79 % 20.32 mm
02:45 -11.9 °C -13.9 °C 34533.8 hPa NNW 2.6 km/h 5.1 km/h 78 % 33.02 mm
02:55 -11.9 °C -13.9 °C 34533.8 hPa WSW 2.6 km/h 5.1 km/h 78 % 33.02 mm
03:05 -11.8 °C -13.7 °C 34567.7 hPa Calm   5.1 km/h 80 % 25.4 mm
03:15 -11.9 °C -13.7 °C 34533.8 hPa WSW 2.6 km/h 5.1 km/h 80 % 76.2 mm
03:25 -11.9 °C -13.7 °C 34533.8 hPa WSW 2.6 km/h 5.1 km/h 80 % 50.8 mm
03:35 -11.8 °C -13.4 °C 34533.8 hPa Calm     82 % 58.42 mm
03:45 -11.8 °C -13.6 °C 34567.7 hPa Calm   2.6 km/h 81 % 83.82 mm
03:55 -11.8 °C -13.5 °C 34567.7 hPa Calm   5.1 km/h 81 % 25.4 mm
08:57 -11.8 °C -13.4 °C 34567.7 hPa SW 6 km/h   82 % 271.78 mm
09:02 -11.8 °C -13.5 °C 34567.7 hPa SW 3.7 km/h 3.7 km/h 81 % 297.18 mm
09:07 -11.8 °C -13.5 °C 34567.7 hPa SW 4.2 km/h 4.2 km/h 81 % 238.76 mm
09:17 -11.8 °C -13.3 °C 34567.7 hPa West 3.1 km/h   83 % 246.38 mm
09:22 -11.7 °C -13.3 °C 34567.7 hPa Calm     83 % 238.76 mm
09:37 -11.7 °C -13.1 °C 34567.7 hPa ENE 3.1 km/h   84 % 187.96 mm
09:42 -11.6 °C -13.1 °C 34567.7 hPa Calm     84 % 160.02 mm
09:47 -11.7 °C -13.2 °C 34533.8 hPa ENE 3.1 km/h 3.1 km/h 83 % 129.54 mm
09:52 -11.6 °C -13.2 °C 34533.8 hPa Calm     83 % 104.14 mm
09:57 -11.6 °C -13.1 °C 34533.8 hPa ENE 3.1 km/h   84 % 104.14 mm
10:02 -11.6 °C -13 °C 34567.7 hPa Calm     84 % 76.2 mm
10:07 -11.6 °C -13 °C 34567.7 hPa ENE 3.7 km/h 3.7 km/h 84 % 76.2 mm
10:12 -11.6 °C -13.1 °C 34567.7 hPa ENE 5.1 km/h   83 % 76.2 mm
10:17 -11.6 °C -13.1 °C 34533.8 hPa SW 3.1 km/h 3.1 km/h 83 % 76.2 mm
10:22 -11.5 °C -12.9 °C 34533.8 hPa Calm     84 % 50.8 mm
10:27 -11.5 °C -12.9 °C 34533.8 hPa Calm     84 % 50.8 mm
10:32 -11.5 °C -12.9 °C 34601.5 hPa SW 3.1 km/h   84 % 50.8 mm
10:37 -11.6 °C -13 °C 34601.5 hPa NE 6 km/h 6 km/h 84 % 25.4 mm
10:42 -11.6 °C -13.1 °C 34601.5 hPa NE 9 km/h 9 km/h 83 % 25.4 mm
10:47 -11.5 °C -12.9 °C 34567.7 hPa ENE 14.5 km/h 14.5 km/h 84 % 25.4 mm
10:52 -11.6 °C -13 °C 34567.7 hPa NNE 20.9 km/h 20.9 km/h 84 % 25.4 mm
10:57 -11.5 °C -12.8 °C 34567.7 hPa East 11.9 km/h 11.9 km/h 85 % 25.4 mm
11:02 -11.5 °C -12.8 °C 34567.7 hPa East 6 km/h 6 km/h 85 % 25.4 mm
11:07 -11.5 °C -12.8 °C 34567.7 hPa SW 6.8 km/h 6.8 km/h 85 % 25.4 mm
11:12 -11.5 °C -13.1 °C 34567.7 hPa WNW 6 km/h 6 km/h 83 % 25.4 mm
11:17 -11.4 °C -12.9 °C 34567.7 hPa NNE 3.1 km/h   84 % 25.4 mm
11:22 -11.3 °C -12.8 °C 34567.7 hPa SW 6 km/h 6 km/h 84 % 25.4 mm
11:27 -11.4 °C -12.8 °C 34567.7 hPa SW 6 km/h 6 km/h 84 % 25.4 mm
11:32 -11.4 °C -12.9 °C 34601.5 hPa SW 6 km/h 6 km/h 83 % 25.4 mm
11:37 -11.3 °C -12.8 °C 34601.5 hPa WSW 3.1 km/h   84 % 25.4 mm
11:42 -11.3 °C -12.6 °C 34601.5 hPa SW 3.7 km/h 3.7 km/h 85 % 25.4 mm
11:47 -11.3 °C -12.6 °C 34567.7 hPa East 6.3 km/h 6.3 km/h 85 % 25.4 mm
11:52 -11.3 °C -12.6 °C 34567.7 hPa SE 6 km/h 6 km/h 86 % 25.4 mm
11:57 -11.2 °C -12.6 °C 34567.7 hPa WSW 3.1 km/h   85 % 25.4 mm
12:02 -11.1 °C -12.4 °C 34567.7 hPa Calm     86 % 25.4 mm
12:07 -11 °C -12.3 °C 34567.7 hPa Calm     86 % 25.4 mm
12:12 -11 °C -12.3 °C 34567.7 hPa Calm     86 % 0 mm
12:17 -11 °C -12.3 °C 34567.7 hPa ENE 6 km/h 6 km/h 86 % 0 mm
12:22 -10.9 °C -12.2 °C 34567.7 hPa ENE 6 km/h 6 km/h 86 % 0 mm
12:27 -10.9 °C -12.2 °C 34567.7 hPa ENE 3.1 km/h   86 % 0 mm
12:37 -10.7 °C -12.1 °C 34567.7 hPa NNE 6 km/h 6 km/h 85 % 0 mm
12:42 -10.5 °C -11.9 °C 34567.7 hPa WNW 3.1 km/h   85 % 0 mm
12:47 -10.3 °C -11.7 °C 34567.7 hPa East 9 km/h 9 km/h 85 % 0 mm
12:52 -10.1 °C -11.6 °C 34567.7 hPa NNE 6 km/h 6 km/h 84 % 0 mm
12:57 -10.1 °C -11.6 °C 34567.7 hPa ENE 9 km/h 9 km/h 83 % 0 mm
13:07 -9.7 °C -11.3 °C 34567.7 hPa ENE 6 km/h 6 km/h 82 % 0 mm
13:12 -9.4 °C -11.1 °C 34567.7 hPa NE 9 km/h 9 km/h 82 % 0 mm
13:22 -9.3 °C -11.3 °C 34567.7 hPa NE 6 km/h 6 km/h 79 % 0 mm
13:27 -9.2 °C -11.2 °C 34567.7 hPa NE 12.7 km/h 12.7 km/h 79 % 0 mm
13:32 -9.2 °C -11.2 °C 34567.7 hPa ENE 11.9 km/h 11.9 km/h 79 % 0 mm
13:38 -9.2 °C -11.3 °C 34567.7 hPa NNE 11.9 km/h 11.9 km/h 78 % 0 mm
13:43 -9.1 °C -11.3 °C 34567.7 hPa WSW 11.9 km/h 11.9 km/h 77 % 0 mm
13:48 -8.8 °C -11.1 °C 34567.7 hPa WNW 7.6 km/h 7.6 km/h 77 % 0 mm
13:53 -8.7 °C -11.1 °C 34567.7 hPa NNE 8.5 km/h 8.5 km/h 76 % 0 mm
13:58 -8.6 °C -10.9 °C 34567.7 hPa NNE 9 km/h 9 km/h 76 % 0 mm
14:03 -8.6 °C -11 °C 34533.8 hPa East 9 km/h 9 km/h 75 % 0 mm
14:08 -8.3 °C -10.9 °C 34533.8 hPa ENE 6 km/h 6 km/h 74 % 0 mm
14:13 -8.2 °C -10.9 °C 34533.8 hPa NW 9 km/h 9 km/h 73 % 0 mm
14:18 -8 °C -10.8 °C 34533.8 hPa SE 11.9 km/h 11.9 km/h 72 % 0 mm
14:23 -7.7 °C -10.5 °C 34533.8 hPa North 6 km/h 6 km/h 72 % 0 mm
14:28 -7.8 °C -10.7 °C 34533.8 hPa NW 9 km/h 9 km/h 71 % 0 mm
14:38 -8.1 °C -11.2 °C 34533.8 hPa SW 11.9 km/h 11.9 km/h 70 % 0 mm
14:43 -7.9 °C -10.9 °C 34533.8 hPa NW 9 km/h 9 km/h 70 % 0 mm
14:48 -7.9 °C -11 °C 34567.7 hPa WNW 6 km/h 6 km/h 70 % 0 mm
14:53 -7.6 °C -10.9 °C 34567.7 hPa ESE 6 km/h 6 km/h 68 % 0 mm
14:58 -7.6 °C -11 °C 34567.7 hPa NE 7.6 km/h 7.6 km/h 67 % 0 mm
15:03 -7.6 °C -10.9 °C 34533.8 hPa NE 9 km/h 9 km/h 68 % 0 mm
15:08 -7.7 °C -11.1 °C 34533.8 hPa WNW 6 km/h 6 km/h 68 % 0 mm
15:13 -7.6 °C -10.9 °C 34533.8 hPa ENE 15 km/h 15 km/h 68 % 0 mm
15:18 -7.4 °C -10.7 °C 34533.8 hPa WSW 6 km/h 6 km/h 68 % 0 mm
15:23 -7.3 °C -10.8 °C 34533.8 hPa WSW 9 km/h 9 km/h 67 % 0 mm
15:28 -7.3 °C -10.8 °C 34533.8 hPa SSW 9.3 km/h 9.3 km/h 67 % 0 mm
15:33 -7.6 °C -11.3 °C 34533.8 hPa SW 11.9 km/h 11.9 km/h 65 % 0 mm
15:38 -7.7 °C -11.2 °C 34533.8 hPa SW 6 km/h 6 km/h 67 % 0 mm
15:43 -7.8 °C -11.1 °C 34533.8 hPa WSW 9 km/h 9 km/h 68 % 0 mm
15:53 -7.9 °C -11.3 °C 34533.8 hPa SW 11.9 km/h 11.9 km/h 68 % 0 mm
15:58 -8 °C -11.3 °C 34533.8 hPa WSW 11.9 km/h 11.9 km/h 68 % 0 mm
16:03 -8 °C -11.3 °C 34533.8 hPa SW 9.8 km/h 9.8 km/h 68 % 0 mm
16:08 -8.1 °C -11.3 °C 34533.8 hPa SW 11.9 km/h 11.9 km/h 69 % 0 mm
16:13 -8.1 °C -11.3 °C 34533.8 hPa WSW 9 km/h 9 km/h 69 % 0 mm
16:18 -7.7 °C -11.2 °C 34533.8 hPa SSW 15 km/h 15 km/h 67 % 0 mm
16:23 -7.6 °C -11 °C 34533.8 hPa West 15 km/h 15 km/h 67 % 0 mm
16:28 -7.5 °C -11.2 °C 34533.8 hPa West 17.9 km/h 17.9 km/h 65 % 0 mm
16:33 -7.4 °C -11.1 °C 34496.6 hPa WSW 7.6 km/h   66 % 0 mm
16:38 -7.5 °C -11.1 °C 34496.6 hPa West 9 km/h 9 km/h 66 % 0 mm
16:43 -7.1 °C -11 °C 34496.6 hPa SE 11.9 km/h 11.9 km/h 64 % 0 mm
16:48 -7.2 °C -11.2 °C 34496.6 hPa SW 11.9 km/h 11.9 km/h 63 % 0 mm
16:53 -7.2 °C -11.2 °C 34496.6 hPa SW 6.8 km/h   63 % 0 mm
16:58 -7.1 °C -11.1 °C 34496.6 hPa South 9 km/h 9 km/h 63 % 0 mm
17:03 -6.8 °C -10.8 °C 34496.6 hPa South 4.2 km/h 4.2 km/h 63 % 0 mm
17:08 -6.9 °C -11.1 °C 34496.6 hPa South 6 km/h 6 km/h 62 % 0 mm
17:13 -6.8 °C -11 °C 34496.6 hPa SW 6 km/h 6 km/h 62 % 0 mm
17:18 -6.7 °C -11 °C 34496.6 hPa WSW 6.3 km/h 6.3 km/h 61 % 0 mm
17:23 -6.8 °C -11.1 °C 34496.6 hPa SSW 3.1 km/h   61 % 0 mm
17:28 -6.9 °C -11.2 °C 34496.6 hPa SSE 9 km/h 9 km/h 61 % 0 mm
17:33 -7 °C -11.3 °C 34496.6 hPa SW 6 km/h 6 km/h 61 % 0 mm
17:38 -7.1 °C -11.4 °C 34496.6 hPa SW 4.2 km/h   61 % 0 mm
17:43 -7.3 °C -11.3 °C 34496.6 hPa SSW 11.9 km/h 11.9 km/h 63 % 0 mm
17:48 -7.4 °C -11.4 °C 34496.6 hPa SW 6.8 km/h 6.8 km/h 63 % 0 mm
17:53 -7.7 °C -11.5 °C 34496.6 hPa SSW 9 km/h 9 km/h 64 % 0 mm
17:58 -7.7 °C -11.6 °C 34496.6 hPa SSW 9 km/h 9 km/h 64 % 0 mm
18:08 -8 °C -11.8 °C 34533.8 hPa SSW 20.9 km/h 20.9 km/h 64 % 0 mm
18:13 -8.2 °C -11.7 °C 34533.8 hPa SW 15 km/h 15.3 km/h 67 % 0 mm
18:18 -8.5 °C -11.3 °C 34496.6 hPa West 37.5 km/h 37.5 km/h 72 % 0 mm
18:23 -8.8 °C -11.1 °C 34496.6 hPa SW 26.9 km/h 26.9 km/h 77 % 0 mm
18:28 -9.2 °C -11.2 °C 34496.6 hPa WSW 17.9 km/h 17.9 km/h 79 % 0 mm
18:33 -9.4 °C -11.3 °C 34496.6 hPa SW 15 km/h 15 km/h 80 % 0 mm
18:38 -9.5 °C -11.4 °C 34496.6 hPa SW 6 km/h 6 km/h 80 % 0 mm
18:43 -9.5 °C -11.4 °C 34496.6 hPa SSW 9 km/h 9 km/h 80 % 0 mm
18:48 -9.4 °C -11.2 °C 34533.8 hPa SW 15 km/h 15 km/h 81 % 0 mm
18:53 -9.5 °C -11.2 °C 34533.8 hPa WSW 10.3 km/h 10.3 km/h 82 % 0 mm
18:58 -9.5 °C -11.2 °C 34533.8 hPa WSW 9.3 km/h 9.3 km/h 82 % 0 mm
19:03 -9.4 °C -11.2 °C 34533.8 hPa WSW 8 km/h 8 km/h 82 % 0 mm
19:08 -9.2 °C -10.9 °C 34533.8 hPa SW 9 km/h 9 km/h 81 % 0 mm
19:13 -9.2 °C -11.1 °C 34533.8 hPa WNW 6 km/h 6 km/h 80 % 0 mm
19:18 -9.3 °C -11.2 °C 34533.8 hPa WSW 6 km/h 6.3 km/h 80 % 0 mm
19:23 -9.3 °C -11.2 °C 34533.8 hPa NNE 6.8 km/h 6.8 km/h 80 % 0 mm
19:28 -9.3 °C -11.3 °C 34533.8 hPa WSW 6.3 km/h 6.3 km/h 79 % 0 mm
19:33 -9.4 °C -11.3 °C 34533.8 hPa WSW 11.9 km/h 11.9 km/h 80 % 0 mm
19:35 -10.7 °C -11.6 °C 34601.5 hPa East 2.6 km/h 7.7 km/h 90 % 0 mm
19:38 -9.4 °C -11.3 °C 34533.8 hPa WSW 6 km/h 6 km/h 80 % 0 mm
19:43 -9.5 °C -11.4 °C 34533.8 hPa WSW 3.7 km/h 3.7 km/h 80 % 0 mm
19:45 -10.8 °C -11.7 °C 34601.5 hPa East 5.1 km/h 7.7 km/h 90 % 0 mm
19:48 -9.6 °C -11.5 °C 34533.8 hPa West 3.1 km/h   80 % 0 mm
19:53 -9.6 °C -11.5 °C 34533.8 hPa WSW 6.3 km/h   80 % 0 mm
19:55 -10.8 °C -11.7 °C 34601.5 hPa East 7.7 km/h 10.3 km/h 90 % 0 mm
19:58 -9.6 °C -11.5 °C 34533.8 hPa WSW 9 km/h 9 km/h 80 % 0 mm
20:03 -9.6 °C -11.5 °C 34533.8 hPa WSW 8 km/h 8 km/h 80 % 0 mm
20:05 -10.8 °C -11.7 °C 34601.5 hPa ESE 2.6 km/h 7.7 km/h 90 % 0 mm
20:08 -9.6 °C -11.4 °C 34533.8 hPa WSW 9 km/h 9 km/h 81 % 0 mm
20:13 -9.6 °C -11.4 °C 34533.8 hPa West 6 km/h 6 km/h 81 % 0 mm
20:15 -10.8 °C -11.7 °C 34601.5 hPa East 5.1 km/h 5.1 km/h 90 % 0 mm
20:18 -9.6 °C -11.4 °C 34533.8 hPa WSW 6 km/h 6 km/h 81 % 0 mm
20:23 -9.6 °C -11.4 °C 34533.8 hPa WSW 6 km/h 6 km/h 81 % 0 mm
20:25 -10.7 °C -11.6 °C 34601.5 hPa East 5.1 km/h 7.7 km/h 90 % 0 mm
20:28 -9.7 °C -11.3 °C 34533.8 hPa WNW 3.1 km/h   82 % 0 mm
20:33 -9.7 °C -11.4 °C 34496.6 hPa WNW 6 km/h 6 km/h 82 % 0 mm
20:35 -10.7 °C -11.6 °C 34601.5 hPa East 2.6 km/h 5.1 km/h 90 % 0 mm
20:43 -9.7 °C -11.5 °C 34496.6 hPa WSW 6 km/h 6 km/h 81 % 0 mm
20:45 -10.7 °C -11.5 °C 34601.5 hPa Calm   5.1 km/h 91 % 0 mm
20:48 -9.8 °C -11.5 °C 34533.8 hPa SW 4.2 km/h 4.2 km/h 82 % 0 mm
20:53 -9.9 °C -11.6 °C 34533.8 hPa SW 6 km/h 6 km/h 82 % 0 mm
20:55 -10.7 °C -11.6 °C 34601.5 hPa East 5.1 km/h 7.7 km/h 90 % 0 mm
20:58 -9.9 °C -11.6 °C 34533.8 hPa WSW 6 km/h 6 km/h 82 % 0 mm
21:03 -9.9 °C -11.5 °C 34533.8 hPa West 3.1 km/h 3.1 km/h 83 % 0 mm
21:05 -10.7 °C -11.6 °C 34601.5 hPa ESE 2.6 km/h 5.1 km/h 90 % 0 mm
21:08 -9.9 °C -11.5 °C 34533.8 hPa WSW 6 km/h 6 km/h 83 % 0 mm
21:13 -9.9 °C -11.5 °C 34533.8 hPa SW 6.3 km/h 6.3 km/h 83 % 0 mm
21:15 -10.7 °C -11.6 °C 34601.5 hPa ENE 2.6 km/h 5.1 km/h 90 % 0 mm
21:18 -10 °C -11.6 °C 34567.7 hPa WSW 6.3 km/h 6.3 km/h 83 % 0 mm
21:23 -10 °C -11.6 °C 34567.7 hPa WSW 6 km/h 6 km/h 83 % 0 mm
21:25 -10.7 °C -11.6 °C 34601.5 hPa Calm     90 % 0 mm
21:28 -10 °C -11.5 °C 34567.7 hPa West 7.6 km/h 7.6 km/h 84 % 0 mm
21:33 -10.1 °C -11.6 °C 34567.7 hPa WSW 6 km/h 6 km/h 84 % 0 mm
21:35 -10.7 °C -11.6 °C 34601.5 hPa NNE 5.1 km/h 5.1 km/h 90 % 0 mm
21:38 -10.1 °C -11.6 °C 34567.7 hPa SSW 9 km/h 9 km/h 84 % 0 mm
21:43 -10.1 °C -11.4 °C 34567.7 hPa SSW 9 km/h 9 km/h 85 % 0 mm
21:45 -10.7 °C -11.6 °C 34601.5 hPa Calm   5.1 km/h 90 % 0 mm
21:48 -10.1 °C -11.3 °C 34567.7 hPa SW 9 km/h 9 km/h 86 % 0 mm
21:53 -10.1 °C -11.4 °C 34567.7 hPa WSW 9 km/h 9 km/h 86 % 0 mm
21:55 -10.8 °C -11.7 °C 34601.5 hPa Calm   5.1 km/h 90 % 0 mm
21:58 -10.1 °C -11.3 °C 34567.7 hPa WSW 11.9 km/h 11.9 km/h 87 % 0 mm
22:03 -10.1 °C -11.2 °C 34567.7 hPa WSW 17.9 km/h 17.9 km/h 88 % 0 mm
22:05 -10.8 °C -11.7 °C 34601.5 hPa Calm     90 % 0 mm
22:08 -10.1 °C -11.2 °C 34567.7 hPa SW 11.9 km/h 11.9 km/h 88 % 0 mm
22:13 -10.2 °C -11.3 °C 34567.7 hPa SW 15 km/h 15 km/h 88 % 0 mm
22:15 -10.9 °C -11.8 °C 34635.4 hPa Calm     90 % 0 mm
22:18 -10.2 °C -11.2 °C 34601.5 hPa West 15 km/h 15 km/h 89 % 0 mm
22:23 -10.2 °C -11.2 °C 34601.5 hPa WSW 6 km/h 6 km/h 89 % 0 mm
22:25 -10.9 °C -11.8 °C 34635.4 hPa NNE 2.6 km/h 2.6 km/h 90 % 0 mm
22:28 -10.2 °C -11.3 °C 34601.5 hPa WSW 9 km/h 9 km/h 88 % 0 mm
22:33 -10.3 °C -11.3 °C 34601.5 hPa SW 8 km/h 8 km/h 88 % 0 mm
22:35 -10.9 °C -11.8 °C 34601.5 hPa Calm   2.6 km/h 90 % 0 mm
22:38 -10.3 °C -11.4 °C 34601.5 hPa WSW 15 km/h 15 km/h 88 % 0 mm
22:43 -10.3 °C -11.4 °C 34601.5 hPa WSW 8 km/h 8 km/h 88 % 0 mm
22:45 -11 °C -11.9 °C 34601.5 hPa Calm   5.1 km/h 90 % 0 mm
22:48 -10.3 °C -11.4 °C 34601.5 hPa WSW 9 km/h 9 km/h 88 % 0 mm
22:53 -10.3 °C -11.4 °C 34601.5 hPa West 3.1 km/h   88 % 0 mm
22:55 -11 °C -11.9 °C 34601.5 hPa Calm     90 % 0 mm
22:58 -10.4 °C -11.5 °C 34601.5 hPa WSW 4.2 km/h 4.2 km/h 88 % 0 mm
23:05 -11 °C -11.8 °C 34601.5 hPa Calm   2.6 km/h 91 % 0 mm
23:08 -10.4 °C -11.5 °C 34601.5 hPa WSW 15 km/h 15 km/h 88 % 0 mm
23:13 -10.4 °C -11.5 °C 34601.5 hPa WSW 11.9 km/h 11.9 km/h 88 % 0 mm
23:15 -10.9 °C -11.7 °C 34601.5 hPa Calm   2.6 km/h 91 % 0 mm
23:23 -10.4 °C -11.4 °C 34601.5 hPa West 9 km/h 9 km/h 89 % 0 mm
23:25 -10.9 °C -11.7 °C 34601.5 hPa Calm     91 % 0 mm
23:28 -10.5 °C -11.5 °C 34601.5 hPa WSW 3.1 km/h 3.1 km/h 89 % 0 mm
23:33 -10.6 °C -11.6 °C 34601.5 hPa WSW 3.1 km/h 3.1 km/h 89 % 0 mm
23:35 -10.9 °C -11.7 °C 34601.5 hPa Calm     91 % 0 mm
23:38 -10.6 °C -11.6 °C 34601.5 hPa Calm     89 % 0 mm
23:43 -10.6 °C -11.6 °C 34601.5 hPa SW 3.1 km/h 3.1 km/h 89 % 0 mm
23:45 -10.9 °C -11.7 °C 34601.5 hPa Calm     91 % 0 mm
23:48 -10.7 °C -11.6 °C 34601.5 hPa SW 3.7 km/h   89 % 0 mm
23:55 -10.9 °C -11.7 °C 34601.5 hPa NE 2.6 km/h 5.1 km/h 91 % 0 mm
23:58 -10.7 °C -11.7 °C 34601.5 hPa Calm     89 % 0 mm
Meteo Sesrovires
Elogis d' Weather Underground - 1.5 mb

Guio original per  Jim McMurry - jmcmurry@mwt.net Adaptat per a la plantilla per  Wim van der Kuil - Leuven-Template.eu

Trobareu la nostra informacio del temps tambe a:

Weather Underground

AWEKAS